createdAt,value
2019-03-26T00:00:47.749Z,4.50
2019-03-26T00:03:16.843Z,4.50
2019-03-26T00:05:46.072Z,4.60
2019-03-26T00:08:14.464Z,4.60
2019-03-26T00:10:43.514Z,4.50
2019-03-26T00:13:12.600Z,4.50
2019-03-26T00:15:41.639Z,4.50
2019-03-26T00:18:11.108Z,4.50
2019-03-26T00:20:39.752Z,4.50
2019-03-26T00:23:10.932Z,4.50
2019-03-26T00:25:39.539Z,4.50
2019-03-26T00:28:07.973Z,4.40
2019-03-26T00:30:36.984Z,4.50
2019-03-26T00:33:05.677Z,4.40
2019-03-26T00:35:34.340Z,4.50
2019-03-26T00:38:03.331Z,4.50
2019-03-26T00:40:32.153Z,4.40
2019-03-26T00:43:01.164Z,4.50
2019-03-26T00:45:30.115Z,4.40
2019-03-26T00:47:59.333Z,4.50
2019-03-26T00:50:28.603Z,4.40
2019-03-26T00:52:57.319Z,4.40
2019-03-26T00:55:26.597Z,4.30
2019-03-26T00:57:55.255Z,4.30
2019-03-26T01:00:38.291Z,4.30
2019-03-26T01:03:06.958Z,4.30
2019-03-26T01:05:35.929Z,4.30
2019-03-26T01:08:04.647Z,4.30
2019-03-26T01:10:33.759Z,4.30
2019-03-26T01:13:02.475Z,4.30
2019-03-26T01:15:31.767Z,4.20
2019-03-26T01:18:00.885Z,4.10
2019-03-26T01:20:29.847Z,4.10
2019-03-26T01:22:58.839Z,4.00
2019-03-26T01:25:27.739Z,4.00
2019-03-26T01:27:57.023Z,3.90
2019-03-26T01:30:25.840Z,3.90
2019-03-26T01:32:54.803Z,3.90
2019-03-26T01:35:24.009Z,3.80
2019-03-26T01:37:52.714Z,3.70
2019-03-26T01:40:21.895Z,3.70
2019-03-26T01:42:51.018Z,3.70
2019-03-26T01:45:20.271Z,3.70
2019-03-26T01:47:48.990Z,3.70
2019-03-26T01:50:18.170Z,3.70
2019-03-26T01:52:47.298Z,3.70
2019-03-26T01:55:15.958Z,3.60
2019-03-26T01:57:44.614Z,3.60
2019-03-26T02:00:13.656Z,3.60
2019-03-26T02:02:42.740Z,3.60
2019-03-26T02:05:11.619Z,3.60
2019-03-26T02:07:40.937Z,3.50
2019-03-26T02:10:10.867Z,3.50
2019-03-26T02:12:39.525Z,3.50
2019-03-26T02:15:10.738Z,3.50
2019-03-26T02:17:39.959Z,3.50
2019-03-26T02:20:08.723Z,3.40
2019-03-26T02:22:37.630Z,3.40
2019-03-26T02:25:06.971Z,3.40
2019-03-26T02:27:35.935Z,3.40
2019-03-26T02:30:04.904Z,3.30
2019-03-26T02:32:33.622Z,3.30
2019-03-26T02:35:17.073Z,3.30
2019-03-26T02:37:33.249Z,3.30
2019-03-26T02:40:02.233Z,3.30
2019-03-26T02:42:31.109Z,3.30
2019-03-26T02:44:59.917Z,3.20
2019-03-26T02:47:28.892Z,3.10
2019-03-26T02:49:57.920Z,3.10
2019-03-26T02:52:27.404Z,3.00
2019-03-26T02:54:56.379Z,3.00
2019-03-26T02:57:25.129Z,3.10
2019-03-26T02:59:53.857Z,3.00
2019-03-26T03:02:23.100Z,3.00
2019-03-26T03:04:52.043Z,2.90
2019-03-26T03:07:20.930Z,2.80
2019-03-26T03:09:49.856Z,2.90
2019-03-26T03:12:18.828Z,2.80
2019-03-26T03:14:48.048Z,2.80
2019-03-26T03:17:17.019Z,2.70
2019-03-26T03:19:46.340Z,2.60
2019-03-26T03:22:15.320Z,2.60
2019-03-26T03:24:44.609Z,2.70
2019-03-26T03:27:13.294Z,2.60
2019-03-26T03:29:42.008Z,2.60
2019-03-26T03:32:11.082Z,2.60
2019-03-26T03:34:40.193Z,2.60
2019-03-26T03:37:08.703Z,2.60
2019-03-26T03:39:37.256Z,2.70
2019-03-26T03:42:06.037Z,2.60
2019-03-26T03:44:45.976Z,2.60
2019-03-26T03:47:18.719Z,2.60
2019-03-26T03:49:50.130Z,2.70
2019-03-26T03:52:22.314Z,2.70
2019-03-26T03:54:53.909Z,2.70
2019-03-26T03:57:26.031Z,2.60
2019-03-26T03:59:57.053Z,2.60
2019-03-26T04:02:26.231Z,2.60
2019-03-26T04:04:55.315Z,2.70
2019-03-26T04:07:24.133Z,2.60
2019-03-26T04:09:53.101Z,2.50
2019-03-26T04:12:22.124Z,2.50
2019-03-26T04:14:51.170Z,2.50
2019-03-26T04:17:20.082Z,2.40
2019-03-26T04:19:48.795Z,2.30
2019-03-26T04:22:17.769Z,2.30
2019-03-26T04:24:46.769Z,2.20
2019-03-26T04:27:15.746Z,2.20
2019-03-26T04:29:44.744Z,2.10
2019-03-26T04:32:13.973Z,2.10
2019-03-26T04:34:42.938Z,2.00
2019-03-26T04:37:11.946Z,1.90
2019-03-26T04:39:41.073Z,1.80
2019-03-26T04:42:09.571Z,1.80
2019-03-26T04:44:38.411Z,1.70
2019-03-26T04:47:07.604Z,1.70
2019-03-26T04:49:35.885Z,1.70
2019-03-26T04:52:04.172Z,1.70
2019-03-26T04:54:32.411Z,1.70
2019-03-26T04:57:00.758Z,1.80
2019-03-26T04:59:28.986Z,1.80
2019-03-26T05:01:58.638Z,1.80
2019-03-26T05:04:26.868Z,1.90
2019-03-26T05:06:55.116Z,1.90
2019-03-26T05:09:23.427Z,1.90
2019-03-26T05:11:53.061Z,1.90
2019-03-26T05:14:21.383Z,1.80
2019-03-26T05:16:49.636Z,1.80
2019-03-26T05:19:18.024Z,1.80
2019-03-26T05:21:46.279Z,1.80
2019-03-26T05:24:14.515Z,1.80
2019-03-26T05:26:42.767Z,1.80
2019-03-26T05:29:11.191Z,1.80
2019-03-26T05:31:39.492Z,1.70
2019-03-26T05:34:07.739Z,1.70
2019-03-26T05:36:35.987Z,1.70
2019-03-26T05:39:05.572Z,1.60
2019-03-26T05:41:33.837Z,1.60
2019-03-26T05:44:02.061Z,1.70
2019-03-26T05:46:30.948Z,1.70
2019-03-26T05:48:59.195Z,1.70
2019-03-26T05:51:27.991Z,1.60
2019-03-26T05:53:56.531Z,1.60
2019-03-26T05:56:30.425Z,1.60
2019-03-26T05:58:57.612Z,1.60
2019-03-26T06:01:25.944Z,1.60
2019-03-26T06:03:54.183Z,1.70
2019-03-26T06:06:22.420Z,1.80
2019-03-26T06:08:50.658Z,1.90
2019-03-26T06:11:18.921Z,1.90
2019-03-26T06:13:47.143Z,2.00
2019-03-26T06:16:15.488Z,2.10
2019-03-26T06:18:43.737Z,2.20
2019-03-26T06:21:12.028Z,2.50
2019-03-26T06:23:40.293Z,2.90
2019-03-26T06:26:08.640Z,3.30
2019-03-26T06:28:36.863Z,3.60
2019-03-26T06:31:05.155Z,4.00
2019-03-26T06:33:33.563Z,4.60
2019-03-26T06:36:01.833Z,5.00
2019-03-26T06:38:30.055Z,5.40
2019-03-26T06:40:58.296Z,5.70
2019-03-26T06:43:26.559Z,6.10
2019-03-26T06:45:54.813Z,6.40
2019-03-26T06:48:23.059Z,6.70
2019-03-26T06:50:51.312Z,7.00
2019-03-26T06:53:19.543Z,7.10
2019-03-26T06:55:47.800Z,7.60
2019-03-26T06:58:16.092Z,7.90
2019-03-26T07:00:44.435Z,8.30
2019-03-26T07:03:12.660Z,8.40
2019-03-26T07:05:42.588Z,8.50
2019-03-26T07:08:10.903Z,8.80
2019-03-26T07:10:39.186Z,9.00
2019-03-26T07:13:07.880Z,9.20
2019-03-26T07:15:36.179Z,9.50
2019-03-26T07:18:04.407Z,9.60
2019-03-26T07:20:32.678Z,10.10
2019-03-26T07:23:01.036Z,10.10
2019-03-26T07:25:29.500Z,10.40
2019-03-26T07:27:58.322Z,10.70
2019-03-26T07:30:37.659Z,9.80
2019-03-26T07:33:05.883Z,9.40
2019-03-26T07:35:34.147Z,9.40
2019-03-26T07:38:02.532Z,9.30
2019-03-26T07:40:30.787Z,8.50
2019-03-26T07:42:59.064Z,8.50
2019-03-26T07:45:27.320Z,8.40
2019-03-26T07:47:55.892Z,8.20
2019-03-26T07:50:27.696Z,8.10
2019-03-26T07:52:56.819Z,8.40
2019-03-26T07:55:26.012Z,8.30
2019-03-26T07:57:54.652Z,8.60
2019-03-26T08:00:34.581Z,8.40
2019-03-26T08:03:06.152Z,7.90
2019-03-26T08:05:35.104Z,7.90
2019-03-26T08:08:03.991Z,7.40
2019-03-26T08:10:32.234Z,7.50
2019-03-26T08:13:00.581Z,7.70
2019-03-26T08:15:29.309Z,8.10
2019-03-26T08:17:57.620Z,7.90
2019-03-26T08:20:26.648Z,7.90
2019-03-26T08:22:55.739Z,7.60
2019-03-26T08:25:24.085Z,7.30
2019-03-26T08:27:52.304Z,7.10
2019-03-26T08:30:20.539Z,7.40
2019-03-26T08:32:48.848Z,7.30
2019-03-26T08:35:17.112Z,7.50
2019-03-26T08:37:45.659Z,7.60
2019-03-26T08:40:13.998Z,7.70
2019-03-26T08:42:42.231Z,7.50
2019-03-26T08:45:10.987Z,7.90
2019-03-26T08:47:39.223Z,7.90
2019-03-26T08:50:08.791Z,8.00
2019-03-26T08:52:37.008Z,7.90
2019-03-26T08:55:06.390Z,8.30
2019-03-26T08:57:45.268Z,8.70
2019-03-26T09:00:23.512Z,9.10
2019-03-26T09:03:01.857Z,9.40
2019-03-26T09:05:30.048Z,9.20
2019-03-26T09:07:58.359Z,8.90
2019-03-26T09:10:26.611Z,9.60
2019-03-26T09:12:59.961Z,9.80
2019-03-26T09:15:28.167Z,8.70
2019-03-26T09:17:56.538Z,8.10
2019-03-26T09:20:24.755Z,7.80
2019-03-26T09:22:53.074Z,7.60
2019-03-26T09:25:21.307Z,7.50
2019-03-26T09:27:52.341Z,7.60
2019-03-26T09:30:19.668Z,7.60
2019-03-26T09:32:47.979Z,7.80
2019-03-26T09:35:17.191Z,7.70
2019-03-26T09:37:45.459Z,7.60
2019-03-26T09:40:15.766Z,7.70
2019-03-26T09:42:44.039Z,7.90
2019-03-26T09:45:13.567Z,8.00
2019-03-26T09:47:54.058Z,7.70
2019-03-26T09:50:50.452Z,7.60
2019-03-26T09:53:18.256Z,7.50
2019-03-26T09:55:47.008Z,7.80
2019-03-26T09:58:15.459Z,7.80
2019-03-26T10:00:44.327Z,7.60
2019-03-26T10:03:16.453Z,8.00
2019-03-26T10:05:45.411Z,8.10
2019-03-26T10:08:17.562Z,8.10
2019-03-26T10:10:44.715Z,8.40
2019-03-26T10:13:13.052Z,8.90
2019-03-26T10:15:41.279Z,8.70
2019-03-26T10:18:09.574Z,8.60
2019-03-26T10:20:37.807Z,8.90
2019-03-26T10:23:06.052Z,9.30
2019-03-26T10:25:34.600Z,9.30
2019-03-26T10:28:02.851Z,9.40
2019-03-26T10:30:36.249Z,9.50
2019-03-26T10:33:04.771Z,10.00
2019-03-26T10:35:33.320Z,10.40
2019-03-26T10:38:01.701Z,9.70
2019-03-26T10:40:30.875Z,9.50
2019-03-26T10:42:59.457Z,9.90
2019-03-26T10:45:27.818Z,9.90
2019-03-26T10:47:56.139Z,10.10
2019-03-26T10:50:24.415Z,9.80
2019-03-26T10:52:52.681Z,9.30
2019-03-26T10:55:20.915Z,9.60
2019-03-26T10:57:49.220Z,9.70
2019-03-26T11:00:18.104Z,10.10
2019-03-26T11:02:46.459Z,10.80
2019-03-26T11:05:14.804Z,10.20
2019-03-26T11:07:43.080Z,10.50
2019-03-26T11:10:11.755Z,10.80
2019-03-26T11:12:40.016Z,11.10
2019-03-26T11:15:09.106Z,11.10
2019-03-26T11:17:37.414Z,11.10
2019-03-26T11:20:07.376Z,10.70
2019-03-26T11:22:37.427Z,11.10
2019-03-26T11:25:06.336Z,11.40
2019-03-26T11:27:34.753Z,11.00
2019-03-26T11:30:03.704Z,11.20
2019-03-26T11:32:31.964Z,10.80
2019-03-26T11:35:00.389Z,11.00
2019-03-26T11:37:28.768Z,11.00
2019-03-26T11:39:57.020Z,10.90
2019-03-26T11:42:25.232Z,10.80
2019-03-26T11:44:53.987Z,11.30
2019-03-26T11:47:22.210Z,11.50
2019-03-26T11:49:50.468Z,11.20
2019-03-26T11:52:18.696Z,10.90
2019-03-26T11:54:46.939Z,11.10
2019-03-26T11:57:15.209Z,11.00
2019-03-26T11:59:43.494Z,11.40
2019-03-26T12:02:11.931Z,11.10
2019-03-26T12:04:40.528Z,11.00
2019-03-26T12:07:08.775Z,11.10
2019-03-26T12:09:46.121Z,11.20
2019-03-26T12:12:08.175Z,10.80
2019-03-26T12:14:36.525Z,11.00
2019-03-26T12:17:04.763Z,11.10
2019-03-26T12:19:33.171Z,11.20
2019-03-26T12:22:01.415Z,11.00
2019-03-26T12:24:29.680Z,10.60
2019-03-26T12:26:57.934Z,10.40
2019-03-26T12:29:26.173Z,10.70
2019-03-26T12:31:54.401Z,11.10
2019-03-26T12:34:22.661Z,11.30
2019-03-26T12:36:50.920Z,11.20
2019-03-26T12:39:19.175Z,11.30
2019-03-26T12:41:47.527Z,11.30
2019-03-26T12:44:15.755Z,11.00
2019-03-26T12:46:44.000Z,10.90
2019-03-26T12:49:12.224Z,10.90
2019-03-26T12:51:40.705Z,11.10
2019-03-26T12:54:09.058Z,11.20
2019-03-26T12:56:38.174Z,11.00
2019-03-26T12:59:06.583Z,10.80
2019-03-26T13:01:34.833Z,10.90
2019-03-26T13:04:12.515Z,10.90
2019-03-26T13:06:33.223Z,11.00
2019-03-26T13:09:04.355Z,10.90
2019-03-26T13:11:32.630Z,10.80
2019-03-26T13:14:00.923Z,10.80
2019-03-26T13:16:29.180Z,10.80
2019-03-26T13:18:57.505Z,11.10
2019-03-26T13:21:25.743Z,10.90
2019-03-26T13:23:54.041Z,11.00
2019-03-26T13:26:23.016Z,11.20
2019-03-26T13:28:52.091Z,11.20
2019-03-26T13:31:20.340Z,11.00
2019-03-26T13:33:48.596Z,11.20
2019-03-26T13:36:16.864Z,11.10
2019-03-26T13:38:45.127Z,11.20
2019-03-26T13:41:13.631Z,11.30
2019-03-26T13:43:42.955Z,11.30
2019-03-26T13:46:14.834Z,11.50
2019-03-26T13:48:43.887Z,11.50
2019-03-26T13:51:12.119Z,11.40
2019-03-26T13:53:40.371Z,11.30
2019-03-26T13:56:08.630Z,11.20
2019-03-26T13:58:36.984Z,11.30
2019-03-26T14:01:05.243Z,11.30
2019-03-26T14:03:33.688Z,11.30
2019-03-26T14:06:02.508Z,11.50
2019-03-26T14:08:31.489Z,11.70
2019-03-26T14:11:00.471Z,11.70
2019-03-26T14:13:29.688Z,11.50
2019-03-26T14:15:58.322Z,11.60
2019-03-26T14:18:26.553Z,11.80
2019-03-26T14:20:54.828Z,11.70
2019-03-26T14:23:23.076Z,11.50
2019-03-26T14:25:51.328Z,11.60
2019-03-26T14:28:19.612Z,11.60
2019-03-26T14:30:47.856Z,11.50
2019-03-26T14:33:16.113Z,11.60
2019-03-26T14:35:44.356Z,11.60
2019-03-26T14:38:12.647Z,11.60
2019-03-26T14:40:53.537Z,11.50
2019-03-26T14:43:11.001Z,11.60
2019-03-26T14:45:42.178Z,11.70
2019-03-26T14:48:09.292Z,11.80
2019-03-26T14:50:37.568Z,11.70
2019-03-26T14:53:06.115Z,11.70
2019-03-26T14:55:34.393Z,11.90
2019-03-26T14:58:02.659Z,11.80
2019-03-26T15:00:31.091Z,11.80
2019-03-26T15:03:00.456Z,11.90
2019-03-26T15:05:29.127Z,12.10
2019-03-26T15:07:57.443Z,12.00
2019-03-26T15:10:25.865Z,11.80
2019-03-26T15:12:54.296Z,11.80
2019-03-26T15:15:22.579Z,11.90
2019-03-26T15:17:53.041Z,11.80
2019-03-26T15:20:21.272Z,11.80
2019-03-26T15:22:49.552Z,11.90
2019-03-26T15:25:17.787Z,11.90
2019-03-26T15:27:46.021Z,11.90
2019-03-26T15:30:14.963Z,11.90
2019-03-26T15:32:43.195Z,11.90
2019-03-26T15:35:11.437Z,11.90
2019-03-26T15:37:40.294Z,11.80
2019-03-26T15:40:09.255Z,11.80
2019-03-26T15:42:37.496Z,11.90
2019-03-26T15:45:06.715Z,11.80
2019-03-26T15:47:43.935Z,11.80
2019-03-26T15:50:28.744Z,11.90
2019-03-26T15:53:05.727Z,11.90
2019-03-26T15:55:34.223Z,11.90
2019-03-26T15:58:03.285Z,11.80
2019-03-26T16:00:32.360Z,11.80
2019-03-26T16:03:01.563Z,11.80
2019-03-26T16:05:29.859Z,11.80
2019-03-26T16:08:01.016Z,11.80
2019-03-26T16:10:29.260Z,11.70
2019-03-26T16:12:57.498Z,11.70
2019-03-26T16:15:25.758Z,11.80
2019-03-26T16:17:54.023Z,11.80
2019-03-26T16:20:22.256Z,11.70
2019-03-26T16:22:50.518Z,11.70
2019-03-26T16:25:19.421Z,11.60
2019-03-26T16:27:48.311Z,11.60
2019-03-26T16:30:18.091Z,11.60
2019-03-26T16:32:46.686Z,11.70
2019-03-26T16:35:15.883Z,11.70
2019-03-26T16:37:45.129Z,11.70
2019-03-26T16:40:14.284Z,11.60
2019-03-26T16:42:43.020Z,11.50
2019-03-26T16:45:12.151Z,11.50
2019-03-26T16:47:40.512Z,11.60
2019-03-26T16:50:09.113Z,11.50
2019-03-26T16:52:37.579Z,11.60
2019-03-26T16:55:06.604Z,11.60
2019-03-26T16:57:35.665Z,11.50
2019-03-26T17:00:05.044Z,11.50
2019-03-26T17:02:34.124Z,11.40
2019-03-26T17:05:03.184Z,11.40
2019-03-26T17:07:31.558Z,11.40
2019-03-26T17:10:00.860Z,11.30
2019-03-26T17:12:29.235Z,11.30
2019-03-26T17:14:58.244Z,11.20
2019-03-26T17:17:27.195Z,11.20
2019-03-26T17:19:55.708Z,11.10
2019-03-26T17:22:24.908Z,11.10
2019-03-26T17:24:53.463Z,11.10
2019-03-26T17:27:21.695Z,11.00
2019-03-26T17:29:49.959Z,11.00
2019-03-26T17:32:18.246Z,11.00
2019-03-26T17:34:46.469Z,10.90
2019-03-26T17:37:15.479Z,10.90
2019-03-26T17:39:45.577Z,10.90
2019-03-26T17:42:17.394Z,10.80
2019-03-26T17:44:43.874Z,10.70
2019-03-26T17:47:12.127Z,10.70
2019-03-26T17:49:40.395Z,10.70
2019-03-26T17:52:08.682Z,10.60
2019-03-26T17:54:36.886Z,10.60
2019-03-26T17:57:05.229Z,10.60
2019-03-26T17:59:33.519Z,10.50
2019-03-26T18:02:01.828Z,10.50
2019-03-26T18:04:31.492Z,10.40
2019-03-26T18:07:00.014Z,10.40
2019-03-26T18:09:28.325Z,10.30
2019-03-26T18:11:58.610Z,10.30
2019-03-26T18:14:27.563Z,10.20
2019-03-26T18:16:56.840Z,10.10
2019-03-26T18:19:25.839Z,10.10
2019-03-26T18:21:54.833Z,10.10
2019-03-26T18:24:26.155Z,10.00
2019-03-26T18:26:56.125Z,10.00
2019-03-26T18:29:24.469Z,9.90
2019-03-26T18:31:53.187Z,9.80
2019-03-26T18:34:22.163Z,9.80
2019-03-26T18:36:50.773Z,9.80
2019-03-26T18:39:19.212Z,9.80
2019-03-26T18:41:48.195Z,9.70
2019-03-26T18:44:16.880Z,9.70
2019-03-26T18:46:46.223Z,9.60
2019-03-26T18:49:15.063Z,9.60
2019-03-26T18:51:43.368Z,9.60
2019-03-26T18:54:11.642Z,9.50
2019-03-26T18:56:41.301Z,9.50
2019-03-26T18:59:10.243Z,9.40
2019-03-26T19:01:39.207Z,9.40
2019-03-26T19:04:08.195Z,9.40
2019-03-26T19:06:37.604Z,9.30
2019-03-26T19:09:07.116Z,9.30
2019-03-26T19:11:36.374Z,9.20
2019-03-26T19:14:04.813Z,9.20
2019-03-26T19:16:33.695Z,9.10
2019-03-26T19:19:02.790Z,9.10
2019-03-26T19:21:31.976Z,9.10
2019-03-26T19:24:04.512Z,9.10
2019-03-26T19:26:31.904Z,9.00
2019-03-26T19:29:01.471Z,9.00
2019-03-26T19:31:30.800Z,8.90
2019-03-26T19:33:59.464Z,8.90
2019-03-26T19:36:28.543Z,8.90
2019-03-26T19:38:57.580Z,8.80
2019-03-26T19:41:26.571Z,8.80
2019-03-26T19:43:55.276Z,8.70
2019-03-26T19:46:24.787Z,8.70
2019-03-26T19:48:53.678Z,8.70
2019-03-26T19:51:22.739Z,8.60
2019-03-26T19:53:51.735Z,8.60
2019-03-26T19:56:20.507Z,8.60
2019-03-26T19:58:49.487Z,8.50
2019-03-26T20:01:17.803Z,8.50
2019-03-26T20:03:49.215Z,8.50
2019-03-26T20:06:17.613Z,8.50
2019-03-26T20:08:46.543Z,8.40
2019-03-26T20:11:15.807Z,8.40
2019-03-26T20:13:45.016Z,8.30
2019-03-26T20:16:15.488Z,8.30
2019-03-26T20:18:43.951Z,8.30
2019-03-26T20:21:13.070Z,8.20
2019-03-26T20:23:42.133Z,8.20
2019-03-26T20:26:11.357Z,8.20
2019-03-26T20:28:40.422Z,8.10
2019-03-26T20:31:09.327Z,8.10
2019-03-26T20:33:38.137Z,8.10
2019-03-26T20:36:07.092Z,8.00
2019-03-26T20:38:37.511Z,8.00
2019-03-26T20:41:06.011Z,7.90
2019-03-26T20:43:37.406Z,7.80
2019-03-26T20:46:05.826Z,7.80
2019-03-26T20:48:34.724Z,7.80
2019-03-26T20:51:03.727Z,7.70
2019-03-26T20:53:32.983Z,7.70
2019-03-26T20:56:01.816Z,7.60
2019-03-26T20:58:30.716Z,7.60
2019-03-26T21:01:00.203Z,7.50
2019-03-26T21:03:29.407Z,7.50
2019-03-26T21:05:58.335Z,7.40
2019-03-26T21:08:27.075Z,7.40
2019-03-26T21:10:56.084Z,7.40
2019-03-26T21:13:25.085Z,7.30
2019-03-26T21:15:57.295Z,7.20
2019-03-26T21:18:24.331Z,7.10
2019-03-26T21:20:53.081Z,7.10
2019-03-26T21:23:22.380Z,7.00
2019-03-26T21:25:51.866Z,7.00
2019-03-26T21:28:23.566Z,6.90
2019-03-26T21:30:52.436Z,6.80
2019-03-26T21:33:21.403Z,6.70
2019-03-26T21:35:50.627Z,6.60
2019-03-26T21:38:19.911Z,6.60
2019-03-26T21:40:48.603Z,6.50
2019-03-26T21:43:17.903Z,6.50
2019-03-26T21:45:46.876Z,6.40
2019-03-26T21:48:16.911Z,6.30
2019-03-26T21:50:46.088Z,6.30
2019-03-26T21:53:14.875Z,6.20
2019-03-26T21:55:44.150Z,6.20
2019-03-26T21:58:12.868Z,6.20
2019-03-26T22:00:44.265Z,6.10
2019-03-26T22:03:12.696Z,6.10
2019-03-26T22:05:42.661Z,6.10
2019-03-26T22:08:11.280Z,6.00
2019-03-26T22:10:39.807Z,6.10
2019-03-26T22:13:08.614Z,6.00
2019-03-26T22:15:37.723Z,6.00
2019-03-26T22:18:06.315Z,6.00
2019-03-26T22:20:35.364Z,6.00
2019-03-26T22:23:04.951Z,5.90
2019-03-26T22:25:34.290Z,5.90
2019-03-26T22:28:02.937Z,5.90
2019-03-26T22:30:31.886Z,5.80
2019-03-26T22:33:01.368Z,5.80
2019-03-26T22:35:30.073Z,5.80
2019-03-26T22:37:58.488Z,5.70
2019-03-26T22:40:27.504Z,5.70
2019-03-26T22:42:59.359Z,5.70
2019-03-26T22:45:28.829Z,5.70
2019-03-26T22:47:57.304Z,5.70
2019-03-26T22:50:26.465Z,5.70
2019-03-26T22:52:55.534Z,5.60
2019-03-26T22:55:23.984Z,5.60
2019-03-26T22:57:53.075Z,5.60
2019-03-26T23:00:21.872Z,5.60
2019-03-26T23:02:51.005Z,5.50
2019-03-26T23:05:20.074Z,5.50
2019-03-26T23:07:48.875Z,5.50
2019-03-26T23:10:18.036Z,5.50
2019-03-26T23:12:47.260Z,5.40
2019-03-26T23:15:22.334Z,5.40
2019-03-26T23:17:51.187Z,5.30
2019-03-26T23:20:19.974Z,5.20
2019-03-26T23:22:48.536Z,5.20
2019-03-26T23:25:17.345Z,5.20
2019-03-26T23:27:46.140Z,5.10
2019-03-26T23:30:14.990Z,5.00
2019-03-26T23:32:44.548Z,5.00
2019-03-26T23:35:13.505Z,4.90
2019-03-26T23:37:42.193Z,4.80
2019-03-26T23:40:10.927Z,4.80
2019-03-26T23:42:39.545Z,4.80
2019-03-26T23:45:09.190Z,4.70
2019-03-26T23:47:38.051Z,4.70
2019-03-26T23:50:07.278Z,4.60
2019-03-26T23:52:35.875Z,4.60
2019-03-26T23:55:05.787Z,4.60
2019-03-26T23:57:37.276Z,4.60
